createdAt,value
2019-03-25T00:01:39.659Z,61.30
2019-03-25T00:04:12.094Z,61.20
2019-03-25T00:06:44.212Z,61.20
2019-03-25T00:09:16.753Z,61.20
2019-03-25T00:11:48.968Z,60.90
2019-03-25T00:14:21.086Z,60.90
2019-03-25T00:16:53.183Z,61.00
2019-03-25T00:19:26.607Z,61.10
2019-03-25T00:21:58.683Z,61.00
2019-03-25T00:24:38.718Z,61.00
2019-03-25T00:27:04.848Z,61.20
2019-03-25T00:29:38.444Z,61.00
2019-03-25T00:32:10.605Z,61.00
2019-03-25T00:34:42.724Z,60.90
2019-03-25T00:37:15.188Z,60.80
2019-03-25T00:39:47.220Z,60.90
2019-03-25T00:42:19.203Z,61.00
2019-03-25T00:44:51.357Z,60.90
2019-03-25T00:47:23.378Z,61.00
2019-03-25T00:49:55.522Z,61.20
2019-03-25T00:52:27.917Z,61.00
2019-03-25T00:55:00.301Z,61.10
2019-03-25T00:57:32.350Z,61.20
2019-03-25T01:00:04.988Z,61.50
2019-03-25T01:02:37.407Z,61.70
2019-03-25T01:05:09.690Z,61.90
2019-03-25T01:07:42.009Z,62.10
2019-03-25T01:10:14.328Z,62.30
2019-03-25T01:12:46.479Z,62.70
2019-03-25T01:15:18.436Z,63.00
2019-03-25T01:17:50.690Z,63.20
2019-03-25T01:20:22.777Z,63.30
2019-03-25T01:22:54.920Z,63.60
2019-03-25T01:25:27.467Z,64.30
2019-03-25T01:27:59.475Z,65.00
2019-03-25T01:30:31.818Z,65.30
2019-03-25T01:33:04.472Z,65.70
2019-03-25T01:35:36.385Z,66.10
2019-03-25T01:38:08.477Z,66.40
2019-03-25T01:40:41.139Z,66.70
2019-03-25T01:43:13.223Z,67.10
2019-03-25T01:45:45.399Z,67.50
2019-03-25T01:48:17.416Z,67.90
2019-03-25T01:50:49.582Z,68.30
2019-03-25T01:53:21.580Z,68.80
2019-03-25T01:55:54.060Z,69.00
2019-03-25T01:58:26.078Z,69.20
2019-03-25T02:00:58.186Z,69.40
2019-03-25T02:03:30.232Z,69.50
2019-03-25T02:06:02.331Z,69.60
2019-03-25T02:08:34.690Z,69.70
2019-03-25T02:11:06.800Z,69.90
2019-03-25T02:13:38.708Z,70.00
2019-03-25T02:16:10.634Z,70.30
2019-03-25T02:18:42.650Z,70.40
2019-03-25T02:21:14.722Z,70.70
2019-03-25T02:23:46.869Z,70.80
2019-03-25T02:26:18.911Z,71.10
2019-03-25T02:28:50.930Z,71.20
2019-03-25T02:31:22.973Z,71.40
2019-03-25T02:33:55.034Z,71.60
2019-03-25T02:36:27.065Z,71.70
2019-03-25T02:38:59.292Z,71.90
2019-03-25T02:41:31.350Z,72.20
2019-03-25T02:44:03.518Z,72.20
2019-03-25T02:46:35.530Z,72.30
2019-03-25T02:49:07.493Z,72.40
2019-03-25T02:51:39.574Z,72.40
2019-03-25T02:54:11.665Z,72.50
2019-03-25T02:56:44.113Z,72.50
2019-03-25T02:59:16.405Z,72.50
2019-03-25T03:01:48.441Z,72.60
2019-03-25T03:04:20.447Z,72.80
2019-03-25T03:06:52.407Z,73.10
2019-03-25T03:09:24.425Z,73.60
2019-03-25T03:11:56.368Z,73.40
2019-03-25T03:14:28.485Z,73.40
2019-03-25T03:17:00.535Z,73.50
2019-03-25T03:19:32.759Z,73.40
2019-03-25T03:22:04.722Z,73.40
2019-03-25T03:24:36.692Z,73.70
2019-03-25T03:27:08.660Z,73.60
2019-03-25T03:29:40.763Z,73.60
2019-03-25T03:32:12.821Z,73.60
2019-03-25T03:34:45.414Z,73.60
2019-03-25T03:37:17.515Z,73.60
2019-03-25T03:39:49.833Z,73.60
2019-03-25T03:42:21.981Z,73.60
2019-03-25T03:44:54.148Z,73.60
2019-03-25T03:47:27.571Z,73.50
2019-03-25T03:50:00.472Z,73.50
2019-03-25T03:52:32.689Z,73.30
2019-03-25T03:55:04.817Z,73.10
2019-03-25T03:57:37.250Z,73.00
2019-03-25T04:00:16.348Z,73.00
2019-03-25T04:02:48.296Z,73.00
2019-03-25T04:05:22.101Z,73.00
2019-03-25T04:07:54.215Z,73.10
2019-03-25T04:10:26.304Z,73.00
2019-03-25T04:12:58.723Z,73.10
2019-03-25T04:15:31.945Z,73.20
2019-03-25T04:18:04.005Z,73.20
2019-03-25T04:20:36.375Z,73.30
2019-03-25T04:23:08.550Z,73.40
2019-03-25T04:25:40.750Z,73.40
2019-03-25T04:28:13.813Z,73.50
2019-03-25T04:30:47.658Z,73.60
2019-03-25T04:33:20.075Z,73.80
2019-03-25T04:35:52.190Z,73.90
2019-03-25T04:38:24.198Z,74.00
2019-03-25T04:40:58.006Z,74.20
2019-03-25T04:43:31.363Z,74.20
2019-03-25T04:46:03.600Z,74.20
2019-03-25T04:48:36.809Z,74.20
2019-03-25T04:51:08.915Z,74.30
2019-03-25T04:53:41.112Z,74.30
2019-03-25T04:56:13.416Z,74.30
2019-03-25T04:58:45.656Z,74.30
2019-03-25T05:01:17.722Z,74.30
2019-03-25T05:03:52.854Z,74.30
2019-03-25T05:06:25.525Z,74.30
2019-03-25T05:08:58.014Z,74.40
2019-03-25T05:11:31.110Z,74.20
2019-03-25T05:14:04.120Z,74.10
2019-03-25T05:16:36.204Z,74.00
2019-03-25T05:19:10.135Z,73.90
2019-03-25T05:21:42.596Z,74.00
2019-03-25T05:24:16.156Z,73.90
2019-03-25T05:26:51.289Z,73.70
2019-03-25T05:29:23.006Z,73.70
2019-03-25T05:31:55.008Z,73.60
2019-03-25T05:34:29.090Z,73.30
2019-03-25T05:37:03.424Z,73.00
2019-03-25T05:39:37.902Z,73.10
2019-03-25T05:42:12.724Z,73.30
2019-03-25T05:44:44.872Z,73.30
2019-03-25T05:47:17.090Z,73.00
2019-03-25T05:49:49.367Z,73.00
2019-03-25T05:52:22.789Z,73.00
2019-03-25T05:54:54.780Z,72.70
2019-03-25T05:57:26.419Z,72.50
2019-03-25T06:00:02.849Z,72.30
2019-03-25T06:02:35.342Z,71.80
2019-03-25T06:05:09.748Z,71.10
2019-03-25T06:07:43.453Z,70.50
2019-03-25T06:10:15.490Z,70.00
2019-03-25T06:12:47.510Z,69.50
2019-03-25T06:15:19.522Z,68.70
2019-03-25T06:17:54.191Z,68.10
2019-03-25T06:20:26.738Z,67.50
2019-03-25T06:22:58.710Z,66.50
2019-03-25T06:25:31.925Z,65.30
2019-03-25T06:28:04.076Z,63.00
2019-03-25T06:30:36.155Z,61.70
2019-03-25T06:33:12.552Z,62.30
2019-03-25T06:35:42.787Z,62.40
2019-03-25T06:38:15.032Z,62.20
2019-03-25T06:40:49.241Z,61.50
2019-03-25T06:43:21.630Z,60.70
2019-03-25T06:45:54.478Z,59.60
2019-03-25T06:48:26.632Z,58.80
2019-03-25T06:50:58.896Z,57.90
2019-03-25T06:53:31.460Z,56.60
2019-03-25T06:56:03.564Z,56.10
2019-03-25T06:58:36.031Z,56.00
2019-03-25T07:01:09.094Z,55.70
2019-03-25T07:03:43.051Z,54.90
2019-03-25T07:06:16.922Z,53.50
2019-03-25T07:08:52.550Z,52.90
2019-03-25T07:11:24.922Z,52.10
2019-03-25T07:13:58.318Z,51.50
2019-03-25T07:16:30.604Z,51.20
2019-03-25T07:19:03.126Z,51.10
2019-03-25T07:21:35.438Z,50.80
2019-03-25T07:24:07.665Z,50.30
2019-03-25T07:26:39.824Z,49.70
2019-03-25T07:29:12.144Z,49.20
2019-03-25T07:31:46.936Z,48.90
2019-03-25T07:34:20.522Z,48.30
2019-03-25T07:37:08.986Z,48.00
2019-03-25T07:39:42.782Z,48.10
2019-03-25T07:42:15.074Z,47.70
2019-03-25T07:44:47.493Z,47.30
2019-03-25T07:47:23.218Z,46.80
2019-03-25T07:49:58.604Z,46.40
2019-03-25T07:52:33.171Z,46.10
2019-03-25T07:55:06.065Z,46.10
2019-03-25T07:57:48.196Z,46.40
2019-03-25T08:00:16.361Z,46.50
2019-03-25T08:02:49.574Z,46.10
2019-03-25T08:05:23.074Z,44.80
2019-03-25T08:07:56.502Z,43.90
2019-03-25T08:10:35.360Z,43.50
2019-03-25T08:13:07.839Z,43.40
2019-03-25T08:15:40.183Z,43.00
2019-03-25T08:18:13.245Z,42.80
2019-03-25T08:20:46.187Z,43.00
2019-03-25T08:23:21.753Z,43.50
2019-03-25T08:25:54.868Z,44.10
2019-03-25T08:28:29.082Z,45.10
2019-03-25T08:31:01.281Z,45.00
2019-03-25T08:33:36.018Z,44.40
2019-03-25T08:36:08.224Z,43.70
2019-03-25T08:38:40.289Z,43.60
2019-03-25T08:41:12.601Z,43.80
2019-03-25T08:43:45.310Z,44.10
2019-03-25T08:46:17.395Z,44.00
2019-03-25T08:48:49.521Z,43.80
2019-03-25T08:51:22.316Z,43.60
2019-03-25T08:54:08.928Z,43.20
2019-03-25T08:56:41.562Z,42.50
2019-03-25T08:59:14.022Z,41.70
2019-03-25T09:01:48.423Z,41.00
2019-03-25T09:04:21.606Z,40.70
2019-03-25T09:06:53.884Z,41.00
2019-03-25T09:09:29.410Z,41.40
2019-03-25T09:12:04.284Z,41.90
2019-03-25T09:14:36.586Z,42.10
2019-03-25T09:17:09.190Z,42.00
2019-03-25T09:19:44.380Z,42.10
2019-03-25T09:22:18.070Z,42.10
2019-03-25T09:24:50.537Z,41.80
2019-03-25T09:27:24.712Z,41.80
2019-03-25T09:30:03.094Z,39.90
2019-03-25T09:32:45.980Z,38.90
2019-03-25T09:35:18.644Z,38.80
2019-03-25T09:37:53.370Z,38.70
2019-03-25T09:40:25.700Z,38.90
2019-03-25T09:42:57.731Z,39.80
2019-03-25T09:45:31.890Z,40.40
2019-03-25T09:48:04.972Z,40.70
2019-03-25T09:50:36.905Z,40.60
2019-03-25T09:53:09.511Z,40.60
2019-03-25T09:55:47.504Z,40.10
2019-03-25T09:58:20.761Z,39.50
2019-03-25T10:00:53.196Z,38.80
2019-03-25T10:03:26.049Z,38.50
2019-03-25T10:06:01.311Z,38.40
2019-03-25T10:08:33.529Z,37.40
2019-03-25T10:11:05.693Z,35.60
2019-03-25T10:13:39.635Z,35.00
2019-03-25T10:16:12.244Z,34.90
2019-03-25T10:18:44.407Z,34.80
2019-03-25T10:21:18.248Z,34.60
2019-03-25T10:23:50.937Z,34.90
2019-03-25T10:26:36.860Z,34.80
2019-03-25T10:29:11.678Z,34.40
2019-03-25T10:31:44.170Z,33.50
2019-03-25T10:34:17.163Z,33.30
2019-03-25T10:36:50.171Z,32.70
2019-03-25T10:39:24.782Z,33.00
2019-03-25T10:41:57.070Z,33.40
2019-03-25T10:44:29.556Z,33.80
2019-03-25T10:47:02.125Z,33.90
2019-03-25T10:49:34.754Z,34.20
2019-03-25T10:52:07.336Z,34.80
2019-03-25T10:54:39.508Z,35.00
2019-03-25T10:57:12.410Z,35.50
2019-03-25T10:59:44.974Z,35.90
2019-03-25T11:02:17.478Z,36.20
2019-03-25T11:04:50.380Z,36.90
2019-03-25T11:07:22.948Z,37.90
2019-03-25T11:09:56.759Z,38.60
2019-03-25T11:12:30.908Z,39.30
2019-03-25T11:15:04.970Z,40.20
2019-03-25T11:17:37.355Z,40.70
2019-03-25T11:20:10.630Z,41.40
2019-03-25T11:22:42.908Z,41.90
2019-03-25T11:25:16.034Z,42.20
2019-03-25T11:27:54.492Z,42.70
2019-03-25T11:30:50.344Z,42.90
2019-03-25T11:33:23.623Z,42.90
2019-03-25T11:35:57.169Z,43.40
2019-03-25T11:38:31.376Z,42.20
2019-03-25T11:41:10.008Z,41.80
2019-03-25T11:43:44.320Z,41.70
2019-03-25T11:46:16.348Z,41.70
2019-03-25T11:48:49.418Z,41.80
2019-03-25T11:51:21.913Z,42.20
2019-03-25T11:53:58.635Z,41.90
2019-03-25T11:56:31.625Z,41.70
2019-03-25T11:59:03.909Z,41.70
2019-03-25T12:01:36.229Z,41.50
2019-03-25T12:04:10.585Z,41.70
2019-03-25T12:06:43.536Z,42.10
2019-03-25T12:09:15.850Z,42.30
2019-03-25T12:11:50.739Z,42.20
2019-03-25T12:14:39.954Z,42.10
2019-03-25T12:17:12.904Z,42.00
2019-03-25T12:19:47.603Z,41.90
2019-03-25T12:22:20.260Z,41.90
2019-03-25T12:24:52.571Z,41.80
2019-03-25T12:27:25.547Z,41.50
2019-03-25T12:30:01.054Z,41.80
2019-03-25T12:32:33.626Z,42.50
2019-03-25T12:35:07.000Z,43.60
2019-03-25T12:37:39.206Z,44.40
2019-03-25T12:40:11.792Z,44.70
2019-03-25T12:42:44.158Z,45.10
2019-03-25T12:45:16.661Z,45.20
2019-03-25T12:47:50.693Z,45.40
2019-03-25T12:50:23.190Z,45.50
2019-03-25T12:52:55.572Z,45.10
2019-03-25T12:55:31.537Z,45.00
2019-03-25T12:58:04.147Z,45.30
2019-03-25T13:00:45.468Z,45.50
2019-03-25T13:03:18.195Z,45.50
2019-03-25T13:05:51.082Z,45.60
2019-03-25T13:08:32.784Z,46.40
2019-03-25T13:10:58.642Z,45.90
2019-03-25T13:13:33.164Z,46.20
2019-03-25T13:16:05.362Z,46.30
2019-03-25T13:18:38.663Z,46.80
2019-03-25T13:21:12.762Z,47.30
2019-03-25T13:23:47.333Z,47.60
2019-03-25T13:26:24.301Z,47.80
2019-03-25T13:29:02.010Z,47.90
2019-03-25T13:31:31.935Z,47.70
2019-03-25T13:34:04.059Z,47.20
2019-03-25T13:36:40.766Z,46.80
2019-03-25T13:39:12.946Z,46.60
2019-03-25T13:41:45.150Z,46.50
2019-03-25T13:44:17.528Z,46.30
2019-03-25T13:46:50.036Z,45.80
2019-03-25T13:49:27.908Z,45.70
2019-03-25T13:52:00.492Z,45.50
2019-03-25T13:54:32.916Z,45.10
2019-03-25T13:57:06.007Z,44.60
2019-03-25T13:59:38.398Z,44.50
2019-03-25T14:02:12.050Z,44.50
2019-03-25T14:04:44.467Z,44.90
2019-03-25T14:07:17.174Z,45.40
2019-03-25T14:09:49.522Z,45.60
2019-03-25T14:12:21.860Z,45.50
2019-03-25T14:14:54.547Z,45.20
2019-03-25T14:17:27.915Z,44.10
2019-03-25T14:20:01.715Z,43.30
2019-03-25T14:22:34.560Z,43.20
2019-03-25T14:25:11.828Z,43.30
2019-03-25T14:27:45.597Z,43.50
2019-03-25T14:30:21.877Z,43.70
2019-03-25T14:33:04.886Z,44.40
2019-03-25T14:35:37.372Z,43.90
2019-03-25T14:38:09.472Z,44.60
2019-03-25T14:40:41.665Z,46.60
2019-03-25T14:43:14.173Z,49.20
2019-03-25T14:45:46.651Z,51.70
2019-03-25T14:48:18.776Z,54.00
2019-03-25T14:50:51.951Z,56.10
2019-03-25T14:53:24.260Z,58.00
2019-03-25T14:55:56.546Z,60.70
2019-03-25T14:58:36.634Z,63.50
2019-03-25T15:01:04.417Z,67.30
2019-03-25T15:03:37.135Z,69.40
2019-03-25T15:06:15.095Z,72.60
2019-03-25T15:08:48.162Z,75.80
2019-03-25T15:11:20.864Z,78.20
2019-03-25T15:13:52.974Z,79.60
2019-03-25T15:16:25.417Z,80.60
2019-03-25T15:18:57.906Z,81.90
2019-03-25T15:21:30.295Z,82.90
2019-03-25T15:24:04.371Z,82.80
2019-03-25T15:26:36.659Z,83.10
2019-03-25T15:29:09.033Z,83.10
2019-03-25T15:31:41.902Z,82.90
2019-03-25T15:34:16.253Z,82.80
2019-03-25T15:36:53.222Z,82.90
2019-03-25T15:39:26.618Z,82.80
2019-03-25T15:42:04.102Z,83.60
2019-03-25T15:44:36.530Z,84.20
2019-03-25T15:47:08.895Z,84.40
2019-03-25T15:49:41.351Z,84.20
2019-03-25T15:52:13.587Z,83.90
2019-03-25T15:54:45.817Z,84.00
2019-03-25T15:57:17.876Z,83.40
2019-03-25T15:59:51.482Z,83.40
2019-03-25T16:02:26.136Z,83.10
2019-03-25T16:04:57.995Z,84.50
2019-03-25T16:07:30.277Z,83.60
2019-03-25T16:10:02.740Z,82.60
2019-03-25T16:12:35.544Z,82.00
2019-03-25T16:15:07.972Z,82.00
2019-03-25T16:17:43.161Z,81.90
2019-03-25T16:20:14.640Z,81.60
2019-03-25T16:22:46.670Z,81.50
2019-03-25T16:25:28.858Z,81.20
2019-03-25T16:28:01.231Z,81.00
2019-03-25T16:30:34.212Z,80.50
2019-03-25T16:33:06.579Z,80.20
2019-03-25T16:35:41.593Z,80.40
2019-03-25T16:38:15.228Z,80.30
2019-03-25T16:40:47.663Z,80.30
2019-03-25T16:43:21.353Z,80.40
2019-03-25T16:45:55.415Z,79.90
2019-03-25T16:48:27.450Z,79.70
2019-03-25T16:50:59.518Z,79.30
2019-03-25T16:53:31.590Z,79.20
2019-03-25T16:56:04.250Z,79.20
2019-03-25T16:58:36.980Z,79.20
2019-03-25T17:01:10.632Z,79.20
2019-03-25T17:03:44.608Z,79.70
2019-03-25T17:06:17.110Z,80.40
2019-03-25T17:08:50.026Z,80.60
2019-03-25T17:11:22.587Z,80.50
2019-03-25T17:13:57.516Z,80.90
2019-03-25T17:16:29.900Z,81.10
2019-03-25T17:19:02.203Z,81.10
2019-03-25T17:21:34.769Z,80.80
2019-03-25T17:24:22.714Z,80.70
2019-03-25T17:26:55.685Z,80.70
2019-03-25T17:29:29.523Z,80.70
2019-03-25T17:32:02.013Z,80.60
2019-03-25T17:34:34.966Z,81.00
2019-03-25T17:37:06.908Z,81.00
2019-03-25T17:39:39.425Z,80.90
2019-03-25T17:42:12.763Z,80.90
2019-03-25T17:44:45.122Z,81.10
2019-03-25T17:47:18.194Z,81.30
2019-03-25T17:49:54.901Z,81.00
2019-03-25T17:52:27.189Z,81.00
2019-03-25T17:54:59.388Z,80.90
2019-03-25T17:57:31.563Z,81.50
2019-03-25T18:00:05.436Z,81.50
2019-03-25T18:02:40.710Z,81.80
2019-03-25T18:05:14.118Z,82.00
2019-03-25T18:07:46.531Z,82.40
2019-03-25T18:10:18.864Z,83.00
2019-03-25T18:12:53.343Z,83.70
2019-03-25T18:15:28.310Z,84.00
2019-03-25T18:18:01.645Z,84.40
2019-03-25T18:20:34.514Z,84.90
2019-03-25T18:23:06.989Z,85.60
2019-03-25T18:25:39.465Z,85.50
2019-03-25T18:28:13.205Z,85.30
2019-03-25T18:30:45.413Z,84.80
2019-03-25T18:33:17.680Z,84.50
2019-03-25T18:35:50.521Z,84.40
2019-03-25T18:38:23.112Z,84.10
2019-03-25T18:40:55.510Z,84.30
2019-03-25T18:43:29.270Z,84.40
2019-03-25T18:46:01.358Z,84.20
2019-03-25T18:48:33.900Z,84.30
2019-03-25T18:51:07.068Z,84.10
2019-03-25T18:53:40.428Z,84.20
2019-03-25T18:56:13.140Z,85.00
2019-03-25T18:58:45.417Z,86.00
2019-03-25T19:01:18.656Z,86.20
2019-03-25T19:03:57.702Z,86.30
2019-03-25T19:06:30.196Z,87.10
2019-03-25T19:09:03.014Z,87.60
2019-03-25T19:11:36.917Z,87.80
2019-03-25T19:14:09.209Z,88.40
2019-03-25T19:16:41.670Z,88.80
2019-03-25T19:19:14.350Z,89.30
2019-03-25T19:21:47.516Z,89.90
2019-03-25T19:24:21.326Z,90.00
2019-03-25T19:26:53.348Z,90.00
2019-03-25T19:29:28.335Z,90.00
2019-03-25T19:32:06.540Z,90.10
2019-03-25T19:34:33.992Z,90.30
2019-03-25T19:37:06.037Z,90.40
2019-03-25T19:39:39.223Z,90.50
2019-03-25T19:42:14.870Z,90.60
2019-03-25T19:44:49.544Z,90.90
2019-03-25T19:47:21.674Z,90.70
2019-03-25T19:49:56.243Z,90.80
2019-03-25T19:52:28.282Z,90.80
2019-03-25T19:55:00.648Z,90.90
2019-03-25T19:57:35.725Z,91.00
2019-03-25T20:00:14.903Z,91.00
2019-03-25T20:02:50.297Z,91.10
2019-03-25T20:05:22.558Z,91.20
2019-03-25T20:07:54.840Z,91.30
2019-03-25T20:10:38.442Z,91.40
2019-03-25T20:13:10.794Z,91.50
2019-03-25T20:15:46.574Z,91.50
2019-03-25T20:18:20.104Z,91.50
2019-03-25T20:20:54.266Z,91.60
2019-03-25T20:23:26.475Z,91.60
2019-03-25T20:25:59.386Z,91.50
2019-03-25T20:28:34.072Z,91.30
2019-03-25T20:31:09.399Z,91.20
2019-03-25T20:33:41.691Z,91.20
2019-03-25T20:36:16.153Z,91.20
2019-03-25T20:38:50.580Z,91.10
2019-03-25T20:41:30.596Z,91.10
2019-03-25T20:44:03.201Z,91.00
2019-03-25T20:46:35.569Z,91.00
2019-03-25T20:49:08.020Z,90.90
2019-03-25T20:51:42.668Z,90.90
2019-03-25T20:54:14.880Z,90.90
2019-03-25T20:56:49.273Z,90.80
2019-03-25T20:59:21.443Z,90.70
2019-03-25T21:01:54.059Z,90.70
2019-03-25T21:04:26.482Z,90.70
2019-03-25T21:07:00.334Z,90.50
2019-03-25T21:09:34.370Z,90.40
2019-03-25T21:12:08.207Z,90.30
2019-03-25T21:14:40.727Z,90.20
2019-03-25T21:17:15.408Z,90.20
2019-03-25T21:19:48.010Z,90.10
2019-03-25T21:22:22.602Z,90.10
2019-03-25T21:24:54.818Z,90.20
2019-03-25T21:27:35.341Z,90.30
2019-03-25T21:30:08.074Z,90.30
2019-03-25T21:32:57.285Z,90.30
2019-03-25T21:35:18.126Z,90.30
2019-03-25T21:37:54.248Z,90.30
2019-03-25T21:40:26.561Z,90.30
2019-03-25T21:43:03.301Z,90.40
2019-03-25T21:45:35.963Z,90.40
2019-03-25T21:48:08.943Z,90.40
2019-03-25T21:50:41.455Z,90.50
2019-03-25T21:53:17.496Z,90.50
2019-03-25T21:55:51.822Z,90.40
2019-03-25T21:58:24.030Z,90.40
2019-03-25T22:01:00.313Z,90.40
2019-03-25T22:03:32.536Z,90.50
2019-03-25T22:06:05.196Z,90.60
2019-03-25T22:08:38.665Z,90.70
2019-03-25T22:11:10.765Z,90.90
2019-03-25T22:13:45.862Z,91.10
2019-03-25T22:16:18.232Z,91.20
2019-03-25T22:18:51.166Z,91.40
2019-03-25T22:21:25.878Z,91.40
2019-03-25T22:23:58.530Z,91.90
2019-03-25T22:26:30.659Z,91.70
2019-03-25T22:29:02.890Z,91.80
2019-03-25T22:31:37.665Z,91.90
2019-03-25T22:34:09.962Z,91.90
2019-03-25T22:36:42.075Z,91.90
2019-03-25T22:39:17.213Z,91.90
2019-03-25T22:41:49.529Z,91.90
2019-03-25T22:44:22.514Z,91.90
2019-03-25T22:46:54.886Z,91.90
2019-03-25T22:49:29.708Z,91.90
2019-03-25T22:52:02.059Z,91.90
2019-03-25T22:54:35.050Z,91.80
2019-03-25T22:57:07.144Z,91.80
2019-03-25T22:59:39.297Z,91.80
2019-03-25T23:02:11.511Z,91.70
2019-03-25T23:04:44.034Z,91.70
2019-03-25T23:07:17.476Z,91.70
2019-03-25T23:09:50.016Z,91.70
2019-03-25T23:12:22.082Z,91.70
2019-03-25T23:14:54.090Z,91.70
2019-03-25T23:17:26.612Z,91.70
2019-03-25T23:20:00.591Z,91.70
2019-03-25T23:22:34.860Z,91.70
2019-03-25T23:25:07.100Z,91.60
2019-03-25T23:27:39.621Z,91.60
2019-03-25T23:30:13.776Z,91.60
2019-03-25T23:32:46.880Z,91.60
2019-03-25T23:35:20.346Z,91.50
2019-03-25T23:37:52.460Z,91.50
2019-03-25T23:40:24.922Z,91.60
2019-03-25T23:42:57.130Z,91.60
2019-03-25T23:45:29.252Z,91.60
2019-03-25T23:48:05.472Z,91.60
2019-03-25T23:50:37.743Z,91.60
2019-03-25T23:53:11.650Z,91.60
2019-03-25T23:55:43.937Z,91.70
2019-03-25T23:58:16.294Z,91.70
